Time;durP1;ratioP1;P1;durP2;ratioP2;P2;SDS_P1;SDS_P2;PMS_P1;PMS_P2;Temp;Humidity;BMP_temperature;BMP_pressure;BME280_temperature;BME280_humidity;BME280_pressure;Samples;Min_cycle;Max_cycle;Signal;HPM_P1;HPM_P2
2022/06/15 00:00:57;;;;;;;1999.90;999.90;;;13.00;99.90;;;;;;5092735;28;20491;-62
2022/06/15 00:03:23;;;;;;;1999.90;999.90;;;13.00;99.90;;;;;;5094951;28;20046;-62
2022/06/15 00:05:50;;;;;;;1999.90;999.90;;;13.00;99.90;;;;;;5092623;28;20048;-62
2022/06/15 00:08:16;;;;;;;1999.90;999.90;;;13.00;99.90;;;;;;5093705;28;20144;-62
2022/06/15 00:10:42;;;;;;;899.83;625.70;;;13.00;99.90;;;;;;5093719;28;20481;-62
2022/06/15 00:13:08;;;;;;;1999.90;999.90;;;13.00;99.90;;;;;;5094285;28;20490;-62
2022/06/15 00:15:34;;;;;;;1999.90;999.90;;;13.00;99.90;;;;;;5088068;28;20036;-62
2022/06/15 00:18:00;;;;;;;1239.30;724.22;;;13.00;99.90;;;;;;5094595;28;20090;-62
2022/06/15 00:20:26;;;;;;;661.92;621.78;;;12.90;99.90;;;;;;5093664;28;20056;-62
2022/06/15 00:22:52;;;;;;;633.78;597.00;;;13.00;99.90;;;;;;5094062;28;20377;-62
2022/06/15 00:25:18;;;;;;;702.60;658.70;;;12.90;99.90;;;;;;5094170;28;20058;-62
2022/06/15 00:27:44;;;;;;;697.63;654.58;;;12.90;99.90;;;;;;5093309;28;20048;-62
2022/06/15 00:30:10;;;;;;;754.30;705.35;;;12.90;99.90;;;;;;5094605;28;20048;-62
2022/06/15 00:32:36;;;;;;;1999.90;999.90;;;12.80;99.90;;;;;;5076202;28;20083;-62
2022/06/15 00:35:02;;;;;;;1033.30;750.35;;;12.80;99.90;;;;;;5074282;28;20095;-62
2022/06/15 00:37:28;;;;;;;1999.90;999.90;;;12.70;99.90;;;;;;5094442;28;20094;-62
2022/06/15 00:39:54;;;;;;;1999.90;999.90;;;12.60;99.90;;;;;;5094040;28;20048;-62
2022/06/15 00:42:20;;;;;;;1999.90;999.90;;;12.60;99.90;;;;;;5091262;28;20079;-62
2022/06/15 00:44:46;;;;;;;1576.40;821.40;;;12.60;99.90;;;;;;5094235;28;20111;-62
2022/06/15 00:47:32;;;;;;;1999.90;999.90;;;12.60;99.90;;;;;;5092770;28;20101;-62
2022/06/15 00:50:03;;;;;;;1999.90;999.90;;;12.60;99.90;;;;;;5091497;28;20040;-62
2022/06/15 00:52:36;;;;;;;1999.90;999.90;;;12.60;99.90;;;;;;5080395;28;20438;-62
2022/06/15 00:55:12;;;;;;;1999.90;999.90;;;12.60;99.90;;;;;;5072255;28;20599;-62
2022/06/15 00:57:39;;;;;;;1999.90;999.90;;;12.60;99.90;;;;;;5071319;28;20406;-62
2022/06/15 01:00:07;;;;;;;1999.90;999.90;;;12.60;99.90;;;;;;5075430;28;20040;-62
2022/06/15 01:02:36;;;;;;;1999.90;999.90;;;12.70;99.90;;;;;;5075590;28;20071;-62
2022/06/15 01:05:06;;;;;;;1999.90;999.90;;;12.70;99.90;;;;;;5087316;28;20052;-62
2022/06/15 01:07:50;;;;;;;1999.90;999.90;;;12.60;99.90;;;;;;5073252;28;20518;-62
2022/06/15 01:10:23;;;;;;;1999.90;999.90;;;12.70;99.90;;;;;;5084738;28;20058;-62
2022/06/15 01:13:16;;;;;;;1999.90;999.90;;;12.70;99.90;;;;;;5093340;28;20104;-62
2022/06/15 01:15:46;;;;;;;;;;;12.60;99.90;;;;;;5092863;28;20372;-62
2022/06/15 01:18:42;;;;;;;1999.90;999.90;;;12.60;99.90;;;;;;5091433;28;19927;-62
2022/06/15 01:21:17;;;;;;;1999.90;999.90;;;12.60;99.90;;;;;;5092978;28;20733;-62
2022/06/15 01:24:04;;;;;;;1999.90;999.90;;;12.60;99.90;;;;;;5093505;28;20054;-62
2022/06/15 01:26:39;;;;;;;1999.90;999.90;;;12.50;99.90;;;;;;5089763;28;20120;-62
2022/06/15 01:29:33;;;;;;;1999.90;999.90;;;12.40;99.90;;;;;;5073202;28;20463;-62
2022/06/15 01:32:09;;;;;;;1999.90;999.90;;;12.30;99.90;;;;;;5071256;28;20193;-62
2022/06/15 01:34:41;;;;;;;1999.90;999.90;;;12.30;99.90;;;;;;5072560;28;20040;-62
2022/06/15 01:37:14;;;;;;;1999.90;999.90;;;12.20;99.90;;;;;;5087814;28;20131;-62
2022/06/15 01:39:51;;;;;;;1999.90;999.90;;;12.20;99.90;;;;;;5092089;28;20048;-62
2022/06/15 01:42:30;;;;;;;1999.90;999.90;;;12.20;99.90;;;;;;5092705;28;20048;-62
2022/06/15 01:45:07;;;;;;;1999.90;999.90;;;12.20;99.90;;;;;;5091407;28;20040;-62
2022/06/15 01:47:35;;;;;;;1999.90;999.90;;;12.20;99.90;;;;;;5093321;28;20060;-62
2022/06/15 01:50:23;;;;;;;1999.90;999.90;;;12.10;99.90;;;;;;5089710;28;20097;-62
2022/06/15 01:53:00;;;;;;;1999.90;999.90;;;12.10;99.90;;;;;;5070590;28;20056;-61
2022/06/15 01:55:38;;;;;;;1999.90;999.90;;;12.10;99.90;;;;;;5061349;28;20040;-62
2022/06/15 01:58:08;;;;;;;1999.90;999.90;;;12.10;99.90;;;;;;5070832;28;20633;-62
2022/06/15 02:00:36;;;;;;;1999.90;999.90;;;12.00;99.90;;;;;;5070696;28;20119;-62
2022/06/15 02:03:18;;;;;;;1999.90;999.90;;;12.00;99.90;;;;;;5082396;28;20055;-62
2022/06/15 02:06:03;;;;;;;1999.90;999.90;;;12.00;99.90;;;;;;5091329;28;20487;-62
2022/06/15 02:08:32;;;;;;;1999.90;999.90;;;11.90;99.90;;;;;;5092490;28;20043;-62
2022/06/15 02:11:14;;;;;;;1999.90;999.90;;;11.90;99.90;;;;;;5091653;28;20044;-62
2022/06/15 02:13:55;;;;;;;1999.90;999.90;;;11.90;99.90;;;;;;5091192;28;20052;-62
2022/06/15 02:16:27;;;;;;;1999.90;999.90;;;11.80;99.90;;;;;;5074585;28;20486;-62
2022/06/15 02:18:55;;;;;;;;;;;11.80;99.90;;;;;;5091427;28;20083;-62
2022/06/15 02:21:23;;;;;;;1999.90;999.90;;;11.80;99.90;;;;;;5090217;28;19924;-61
2022/06/15 02:23:57;;;;;;;1999.90;999.90;;;11.70;99.90;;;;;;5074432;28;20119;-61
2022/06/15 02:26:27;;;;;;;1999.90;999.90;;;11.60;99.90;;;;;;5092100;28;20532;-61
2022/06/15 02:29:04;;;;;;;1999.90;999.90;;;11.60;99.90;;;;;;5090740;28;20051;-61
2022/06/15 02:31:38;;;;;;;1999.90;999.90;;;11.50;99.90;;;;;;5095213;28;20044;-62
2022/06/15 02:34:05;;;;;;;1999.90;999.90;;;11.40;99.90;;;;;;5094858;28;20048;-62
2022/06/15 02:36:32;;;;;;;1999.90;999.90;;;11.40;99.90;;;;;;5094664;28;20081;-61
2022/06/15 02:39:03;;;;;;;1999.90;999.90;;;11.30;99.90;;;;;;5094821;28;20551;-61
2022/06/15 02:41:30;;;;;;;1999.90;999.90;;;11.30;99.90;;;;;;5093851;28;20082;-61
2022/06/15 02:44:00;;;;;;;1999.90;999.90;;;11.30;99.90;;;;;;5092693;28;20089;-62
2022/06/15 02:46:31;;;;;;;1999.90;999.90;;;11.30;99.90;;;;;;5079161;28;20047;-61
2022/06/15 02:48:57;;;;;;;1999.90;999.90;;;11.30;99.90;;;;;;5089850;28;20037;-61
2022/06/15 02:51:38;;;;;;;1999.90;999.90;;;11.30;99.90;;;;;;5074955;28;20053;-61
2022/06/15 02:54:10;;;;;;;;;;;11.30;99.90;;;;;;5075380;28;20067;-61
2022/06/15 02:56:38;;;;;;;1999.90;999.90;;;11.40;99.90;;;;;;5088284;28;20328;-61
2022/06/15 02:59:06;;;;;;;1999.90;999.90;;;11.40;99.90;;;;;;5095168;28;20132;-61
2022/06/15 03:01:37;;;;;;;1999.90;999.90;;;11.40;99.90;;;;;;5094531;28;20051;-61
2022/06/15 03:04:03;;;;;;;1999.90;999.90;;;11.30;99.90;;;;;;5093125;28;20040;-61
2022/06/15 03:06:29;;;;;;;1999.90;999.90;;;11.30;99.90;;;;;;5094698;28;20047;-61
2022/06/15 03:08:59;;;;;;;1999.90;999.90;;;11.30;99.90;;;;;;5094894;28;20059;-62
2022/06/15 03:11:32;;;;;;;1999.90;999.90;;;11.20;99.90;;;;;;5093563;28;20079;-61
2022/06/15 03:14:05;;;;;;;1999.90;999.90;;;11.20;99.90;;;;;;5080869;28;20054;-61
2022/06/15 03:16:33;;;;;;;1999.90;999.90;;;11.30;99.90;;;;;;5073786;28;20055;-61
2022/06/15 03:18:59;;;;;;;1561.18;806.13;;;11.30;99.90;;;;;;5073956;28;20387;-61
2022/06/15 03:21:27;;;;;;;1999.90;999.90;;;11.40;99.90;;;;;;5074389;28;20037;-61
2022/06/15 03:23:54;;;;;;;1999.90;999.90;;;11.40;99.90;;;;;;5093972;28;20132;-61
2022/06/15 03:26:20;;;;;;;1999.90;999.90;;;11.50;99.90;;;;;;5095373;28;20075;-61
2022/06/15 03:28:46;;;;;;;1281.68;763.70;;;11.50;99.90;;;;;;5094419;28;20044;-61
2022/06/15 03:31:15;;;;;;;1654.78;893.22;;;11.60;99.90;;;;;;5084024;28;20041;-61
2022/06/15 03:33:42;;;;;;;625.90;586.45;;;11.70;99.90;;;;;;5073660;28;20048;-61
2022/06/15 03:36:13;;;;;;;1999.90;999.90;;;11.80;99.90;;;;;;5073804;28;20076;-61
2022/06/15 03:38:38;;;;;;;1999.90;999.90;;;11.90;99.90;;;;;;5073257;28;20158;-62
2022/06/15 03:41:18;;;;;;;1999.90;999.90;;;11.90;99.90;;;;;;5090819;28;20055;-61
2022/06/15 03:43:44;;;;;;;1999.90;999.90;;;12.00;99.90;;;;;;5094315;28;20048;-61
2022/06/15 03:46:12;;;;;;;1999.90;999.90;;;12.00;99.90;;;;;;5093231;28;20104;-61
2022/06/15 03:48:40;;;;;;;1999.90;999.90;;;12.10;99.90;;;;;;5086392;28;20032;-61
2022/06/15 03:51:06;;;;;;;1999.90;999.90;;;12.10;99.90;;;;;;5095392;28;20054;-61
2022/06/15 03:53:40;;;;;;;1999.90;999.90;;;12.10;99.90;;;;;;5093462;28;20040;-61
2022/06/15 03:56:06;;;;;;;1999.90;999.90;;;12.20;99.90;;;;;;5093275;28;20101;-61
2022/06/15 03:58:33;;;;;;;1999.90;999.90;;;12.20;99.90;;;;;;5076527;28;20043;-61
2022/06/15 04:00:59;;;;;;;1999.90;999.90;;;12.30;99.90;;;;;;5092680;28;20075;-61
2022/06/15 04:03:29;;;;;;;1999.90;999.90;;;12.30;99.90;;;;;;5093110;28;20078;-61
2022/06/15 04:06:00;;;;;;;914.03;640.90;;;12.30;99.90;;;;;;5092461;28;20155;-61
2022/06/15 04:08:35;;;;;;;1999.90;999.90;;;12.30;99.90;;;;;;5093853;28;20123;-61
2022/06/15 04:11:07;;;;;;;1999.90;999.90;;;12.30;99.90;;;;;;5094490;28;20055;-61
2022/06/15 04:13:35;;;;;;;1999.90;999.90;;;12.30;99.90;;;;;;5092583;28;20076;-62
2022/06/15 04:16:05;;;;;;;1999.90;999.90;;;12.40;99.90;;;;;;5093070;28;20127;-61
2022/06/15 04:18:32;;;;;;;1999.90;999.90;;;12.40;99.90;;;;;;5093157;28;20036;-61
2022/06/15 04:21:04;;;;;;;823.55;552.00;;;12.50;99.90;;;;;;5075484;28;20055;-61
2022/06/15 04:23:30;;;;;;;1999.90;999.90;;;12.60;99.90;;;;;;5092585;28;20048;-61
2022/06/15 04:25:59;;;;;;;1999.90;999.90;;;12.60;99.90;;;;;;5072370;28;20052;-62
2022/06/15 04:28:32;;;;;;;1999.90;999.90;;;12.70;99.90;;;;;;5072447;28;20048;-62
2022/06/15 04:31:04;;;;;;;1999.90;999.90;;;12.80;99.90;;;;;;5072997;28;20124;-61
2022/06/15 04:33:34;;;;;;;1999.90;999.90;;;12.90;99.90;;;;;;5084346;28;20036;-61
2022/06/15 04:36:02;;;;;;;1999.90;999.90;;;12.90;99.90;;;;;;5092206;28;20051;-62
2022/06/15 04:38:28;;;;;;;1999.90;999.90;;;13.00;99.90;;;;;;5092810;28;20044;-62
2022/06/15 04:41:02;;;;;;;668.40;624.20;;;13.10;99.90;;;;;;5090864;28;20578;-61
2022/06/15 04:43:28;;;;;;;666.78;624.80;;;13.20;99.90;;;;;;5093086;28;20105;-61
2022/06/15 04:45:55;;;;;;;996.38;714.55;;;13.20;99.90;;;;;;5091622;28;20094;-61
2022/06/15 04:48:23;;;;;;;1999.90;999.90;;;13.30;99.90;;;;;;5072781;28;20074;-62
2022/06/15 04:50:50;;;;;;;1999.90;999.90;;;13.40;99.90;;;;;;5080761;28;20089;-61
2022/06/15 04:53:16;;;;;;;951.20;670.92;;;13.50;99.90;;;;;;5092484;28;20036;-61
2022/06/15 04:55:47;;;;;;;1999.90;999.90;;;13.60;99.90;;;;;;5091573;28;20144;-61
2022/06/15 04:58:15;;;;;;;1999.90;999.90;;;13.70;99.90;;;;;;5092794;28;20043;-61
2022/06/15 05:00:42;;;;;;;1999.90;999.90;;;13.80;99.90;;;;;;5074821;28;20040;-61
2022/06/15 05:03:09;;;;;;;917.85;642.22;;;13.90;99.90;;;;;;5072290;28;20056;-62
2022/06/15 05:05:36;;;;;;;556.03;524.00;;;13.90;99.90;;;;;;5055458;28;20048;-61
2022/06/15 05:08:06;;;;;;;967.38;688.40;;;14.00;99.90;;;;;;5076976;28;20340;-61
2022/06/15 05:10:32;;;;;;;987.42;705.20;;;14.10;99.90;;;;;;5091378;28;20094;-61
2022/06/15 05:12:58;;;;;;;1999.90;999.90;;;14.20;99.90;;;;;;5090256;28;20051;-61
2022/06/15 05:15:26;;;;;;;949.05;672.63;;;14.20;99.90;;;;;;5072037;28;20044;-61
2022/06/15 05:18:03;;;;;;;624.75;585.35;;;14.30;99.90;;;;;;5084082;28;20052;-61
2022/06/15 05:20:30;;;;;;;648.78;609.53;;;14.40;99.90;;;;;;5075170;28;20131;-62
2022/06/15 05:22:56;;;;;;;502.27;475.90;;;14.40;99.90;;;;;;5092406;28;20087;-61
2022/06/15 05:25:38;;;;;;;526.00;497.95;;;14.50;99.90;;;;;;5091261;28;20386;-62
2022/06/15 05:28:05;;;;;;;538.42;506.67;;;14.50;99.90;;;;;;5092158;28;20048;-62
2022/06/15 05:30:34;;;;;;;531.10;501.80;;;14.60;99.90;;;;;;5090963;28;20052;-61
2022/06/15 05:33:01;;;;;;;600.00;564.97;;;14.60;99.90;;;;;;5092041;28;20040;-62
2022/06/15 05:35:27;;;;;;;620.80;582.60;;;14.60;99.90;;;;;;5091506;28;20036;-61
2022/06/15 05:37:53;;;;;;;569.42;535.97;;;14.70;99.90;;;;;;5092644;28;20401;-62
2022/06/15 05:40:19;;;;;;;541.90;510.55;;;14.80;99.90;;;;;;5091131;28;20109;-61
2022/06/15 05:42:45;;;;;;;549.25;517.13;;;14.90;99.90;;;;;;5091632;28;20401;-62
2022/06/15 05:45:11;;;;;;;577.75;542.65;;;15.00;99.90;;;;;;5083854;28;20032;-62
2022/06/15 05:47:39;;;;;;;584.35;547.65;;;;;;;;;;5071243;28;20095;-61
2022/06/15 05:50:25;;;;;;;455.17;430.33;;;15.40;99.90;;;;;;5071562;28;20402;-62
2022/06/15 05:53:02;;;;;;;438.20;415.23;;;;;;;;;;5070059;28;20084;-62
2022/06/15 05:55:28;;;;;;;500.42;473.55;;;15.60;99.90;;;;;;5072962;28;20131;-62
2022/06/15 05:57:54;;;;;;;423.95;402.80;;;15.70;99.90;;;;;;5072704;28;20127;-62
2022/06/15 06:00:21;;;;;;;364.95;347.60;;;15.90;99.90;;;;;;5070220;28;20044;-61
2022/06/15 06:02:46;;;;;;;426.30;403.92;;;16.00;99.90;;;;;;5085579;28;20076;-61
2022/06/15 06:05:12;;;;;;;350.27;333.60;;;16.10;99.90;;;;;;5071756;28;20079;-61
2022/06/15 06:07:38;;;;;;;407.02;386.08;;;16.20;99.90;;;;;;5072200;28;20056;-62
2022/06/15 06:10:04;;;;;;;404.58;384.55;;;16.30;99.90;;;;;;5071054;28;20556;-62
2022/06/15 06:12:30;;;;;;;405.30;385.05;;;16.40;99.90;;;;;;5071926;28;20059;-62
2022/06/15 06:14:56;;;;;;;409.85;389.30;;;16.50;99.90;;;;;;5072741;28;20036;-62
2022/06/15 06:17:22;;;;;;;445.23;422.60;;;16.70;99.90;;;;;;5072261;28;20048;-62
2022/06/15 06:19:48;;;;;;;519.67;492.13;;;16.80;99.90;;;;;;5084308;28;20044;-62
2022/06/15 06:22:14;;;;;;;409.33;388.92;;;16.80;99.90;;;;;;5092854;28;20184;-61
2022/06/15 06:24:39;;;;;;;475.73;451.98;;;16.90;99.90;;;;;;5091600;28;20037;-62
2022/06/15 06:27:07;;;;;;;393.98;374.70;;;17.00;99.90;;;;;;5091685;28;20494;-61
2022/06/15 06:29:34;;;;;;;430.77;409.88;;;17.00;99.90;;;;;;5092663;28;20744;-61
2022/06/15 06:32:00;;;;;;;394.75;376.23;;;17.10;99.90;;;;;;5092321;28;20060;-62
2022/06/15 06:34:30;;;;;;;449.52;427.08;;;17.10;99.90;;;;;;5090469;28;20494;-62
2022/06/15 06:36:56;;;;;;;466.13;442.45;;;17.00;99.90;;;;;;5073057;28;20383;-61
2022/06/15 06:39:25;;;;;;;492.92;467.75;;;17.10;99.90;;;;;;5071263;28;20546;-62
2022/06/15 06:41:52;;;;;;;427.17;406.00;;;17.10;99.90;;;;;;5071426;28;20055;-62
2022/06/15 06:44:18;;;;;;;430.33;408.85;;;17.10;99.90;;;;;;5060149;28;20076;-62
2022/06/15 06:46:46;;;;;;;443.65;421.73;;;17.20;99.90;;;;;;5070654;28;20080;-62
2022/06/15 06:49:13;;;;;;;488.38;463.40;;;17.20;99.90;;;;;;5071173;28;20490;-62
2022/06/15 06:51:40;;;;;;;466.05;442.52;;;17.20;99.90;;;;;;5071898;28;20116;-62
2022/06/15 06:54:07;;;;;;;457.63;434.27;;;17.30;99.90;;;;;;5071202;28;20035;-61
2022/06/15 06:56:35;;;;;;;488.05;463.17;;;17.30;99.90;;;;;;5069266;28;20083;-62
2022/06/15 06:59:02;;;;;;;807.83;752.78;;;17.30;99.90;;;;;;5070713;28;20040;-62
2022/06/15 07:01:28;;;;;;;497.08;470.15;;;17.40;99.90;;;;;;5070824;28;20052;-62
2022/06/15 07:03:54;;;;;;;506.05;479.13;;;17.40;99.90;;;;;;5073126;28;20056;-62
2022/06/15 07:06:19;;;;;;;550.33;520.30;;;17.40;99.90;;;;;;5053250;28;20044;-62
2022/06/15 07:08:45;;;;;;;524.30;495.52;;;17.40;99.90;;;;;;5069960;28;20045;-62
2022/06/15 07:11:15;;;;;;;534.70;505.08;;;17.40;99.90;;;;;;5071557;28;20406;-62
2022/06/15 07:13:41;;;;;;;560.42;528.55;;;17.40;99.90;;;;;;5072620;28;20043;-62
2022/06/15 07:16:10;;;;;;;1639.60;881.92;;;17.50;99.90;;;;;;5070800;28;20044;-62
2022/06/15 07:18:36;;;;;;;1648.28;889.55;;;17.60;99.90;;;;;;5075198;28;20562;-62
2022/06/15 07:21:07;;;;;;;684.00;642.17;;;17.60;99.90;;;;;;5081756;28;20048;-62
2022/06/15 07:23:33;;;;;;;1999.90;999.90;;;17.70;99.90;;;;;;5094610;28;20083;-62
2022/06/15 07:26:04;;;;;;;1672.35;911.70;;;17.90;99.90;;;;;;5094145;28;20077;-62
2022/06/15 07:28:31;;;;;;;1999.90;999.90;;;18.00;99.90;;;;;;5095470;28;20040;-62
2022/06/15 07:30:56;;;;;;;1999.90;999.90;;;18.20;99.90;;;;;;5092623;28;20036;-62
2022/06/15 07:33:22;;;;;;;1999.90;999.90;;;18.50;99.90;;;;;;5075250;28;20041;-62
2022/06/15 07:35:48;;;;;;;1999.90;999.90;;;18.60;99.90;;;;;;5073627;28;20051;-62
2022/06/15 07:38:14;;;;;;;1999.90;999.90;;;18.70;99.90;;;;;;5075156;28;20048;-62
2022/06/15 07:40:39;;;;;;;1999.90;999.90;;;18.80;99.90;;;;;;5062032;28;20454;-62
2022/06/15 07:43:05;;;;;;;1999.90;999.90;;;18.90;99.90;;;;;;5074658;28;20502;-62
2022/06/15 07:45:31;;;;;;;1999.90;999.90;;;19.00;99.90;;;;;;5071748;28;20127;-62
2022/06/15 07:50:42;;;;;;;1999.90;999.90;;;19.30;99.90;;;;;;5067229;28;20037;-62
2022/06/15 07:53:11;;;;;;;1999.90;999.90;;;19.40;99.90;;;;;;5054030;28;20041;-62
2022/06/15 07:55:41;;;;;;;1999.90;999.90;;;19.60;99.90;;;;;;5094080;28;20470;-62
2022/06/15 07:58:08;;;;;;;1999.90;999.90;;;19.60;99.90;;;;;;5067988;28;20080;-62
2022/06/15 08:00:36;;;;;;;1999.90;999.90;;;19.80;99.90;;;;;;5073386;28;20048;-62
2022/06/15 08:03:03;;;;;;;1999.90;999.90;;;20.00;99.90;;;;;;5074673;28;20083;-62
2022/06/15 08:05:35;;;;;;;1999.90;999.90;;;20.10;99.90;;;;;;5082506;28;20101;-62
2022/06/15 08:08:03;;;;;;;1999.90;999.90;;;20.20;99.90;;;;;;5094463;28;20058;-62
2022/06/15 08:10:30;;;;;;;1999.90;999.90;;;20.40;99.90;;;;;;5093693;28;20044;-62
2022/06/15 08:12:56;;;;;;;1999.90;999.90;;;20.40;99.90;;;;;;5093883;28;20548;-62
2022/06/15 08:15:22;;;;;;;1999.90;999.90;;;20.50;99.90;;;;;;5077042;28;20083;-62
2022/06/15 08:17:54;;;;;;;1999.90;999.90;;;20.60;99.90;;;;;;5068943;28;20490;-62
2022/06/15 08:20:27;;;;;;;1999.90;999.90;;;20.70;99.90;;;;;;5069633;28;20045;-62
2022/06/15 08:23:01;;;;;;;1999.90;999.90;;;20.80;99.90;;;;;;5076786;28;20059;-62
2022/06/15 08:25:32;;;;;;;1999.90;999.90;;;20.90;99.90;;;;;;5078005;28;20052;-62
2022/06/15 08:27:59;;;;;;;1999.90;999.90;;;20.90;99.90;;;;;;5056893;28;20057;-62
2022/06/15 08:30:26;;;;;;;1999.90;999.90;;;20.90;99.90;;;;;;5073037;28;20048;-62
2022/06/15 08:32:53;;;;;;;1999.90;999.90;;;20.90;99.90;;;;;;5082196;28;20040;-62
2022/06/15 08:35:19;;;;;;;1999.90;999.90;;;21.10;99.90;;;;;;5073430;28;20041;-62
2022/06/15 08:37:45;;;;;;;1999.90;999.90;;;21.20;99.90;;;;;;5073538;28;20534;-62
2022/06/15 08:40:12;;;;;;;1999.90;999.90;;;21.20;99.90;;;;;;5074873;28;20198;-62
2022/06/15 08:43:01;;;;;;;1999.90;999.90;;;21.50;99.90;;;;;;5073807;28;20052;-62
2022/06/15 08:45:41;;;;;;;1999.90;999.90;;;21.60;99.90;;;;;;5073605;28;20044;-62
2022/06/15 08:48:41;;;;;;;1999.90;999.90;;;21.80;99.80;;;;;;5083837;28;20116;-62
2022/06/15 08:51:15;;;;;;;1999.90;999.90;;;22.00;99.90;;;;;;5092224;28;20051;-62
2022/06/15 08:54:01;;;;;;;1999.90;999.90;;;22.20;99.90;;;;;;5071765;28;20049;-62
2022/06/15 08:56:39;;;;;;;1999.90;999.90;;;22.30;99.80;;;;;;5072720;28;20051;-62
2022/06/15 08:59:43;;;;;;;1999.90;999.90;;;22.50;99.10;;;;;;5073923;28;20080;-62
2022/06/15 09:02:24;;;;;;;1999.90;999.90;;;22.60;99.50;;;;;;5069981;28;20049;-62
2022/06/15 09:05:00;;;;;;;1999.90;999.90;;;22.60;98.60;;;;;;5073298;28;20047;-62
2022/06/15 09:07:42;;;;;;;1999.90;999.90;;;22.40;98.00;;;;;;5080883;28;20071;-62
2022/06/15 09:10:26;;;;;;;1999.90;999.90;;;22.20;98.30;;;;;;5066178;28;20109;-62
2022/06/15 09:13:01;;;;;;;1999.90;999.90;;;22.00;98.40;;;;;;5052469;28;20578;-62
2022/06/15 09:15:49;;;;;;;1999.90;999.90;;;22.10;98.10;;;;;;5061904;28;20266;-62
2022/06/15 09:18:29;;;;;;;1999.90;999.90;;;22.00;97.10;;;;;;5093486;28;20048;-62
2022/06/15 09:21:04;;;;;;;1999.90;999.90;;;21.80;98.20;;;;;;5092847;28;20080;-62
2022/06/15 09:23:36;;;;;;;1999.90;999.90;;;21.60;98.00;;;;;;5078439;28;20059;-62
2022/06/15 09:26:07;;;;;;;1999.90;999.90;;;21.70;98.20;;;;;;5088161;28;20055;-62
2022/06/15 09:28:40;;;;;;;1999.90;999.90;;;22.00;97.90;;;;;;5087321;28;20510;-62
2022/06/15 09:31:16;;;;;;;1999.90;999.90;;;22.40;96.30;;;;;;5069161;28;20036;-62
2022/06/15 09:33:53;;;;;;;1999.90;999.90;;;22.70;96.30;;;;;;5074788;28;20540;-62
2022/06/15 09:36:23;;;;;;;1999.90;999.90;;;22.70;96.00;;;;;;5071473;28;20478;-62
2022/06/15 09:38:49;;;;;;;1999.90;999.90;;;22.50;96.00;;;;;;5072094;28;20053;-62
2022/06/15 09:41:27;;;;;;;1999.90;999.90;;;22.30;96.60;;;;;;5072817;28;20053;-62
2022/06/15 09:43:58;;;;;;;1999.90;999.90;;;22.20;96.20;;;;;;5070106;28;20079;-62
2022/06/15 09:46:39;;;;;;;1999.90;999.90;;;22.40;96.80;;;;;;5066834;28;20066;-62
2022/06/15 09:49:12;;;;;;;1999.90;999.90;;;22.60;97.30;;;;;;5052335;28;20391;-62
2022/06/15 09:51:46;;;;;;;1999.90;999.90;;;23.00;97.60;;;;;;5062375;28;20080;-62
2022/06/15 09:54:32;;;;;;;1999.90;999.90;;;23.40;95.90;;;;;;5072381;28;20043;-62
2022/06/15 09:56:58;;;;;;;1999.90;999.90;;;23.70;96.10;;;;;;5069074;28;20048;-62
2022/06/15 09:59:25;;;;;;;1999.90;999.90;;;24.10;95.40;;;;;;5071640;28;20427;-62
2022/06/15 10:01:51;;;;;;;1999.90;999.90;;;24.70;95.00;;;;;;5072175;28;20052;-62
2022/06/15 10:04:27;;;;;;;1999.90;999.90;;;24.80;94.00;;;;;;5065304;28;20064;-62
2022/06/15 10:07:02;;;;;;;1999.90;999.90;;;25.30;93.70;;;;;;5092643;28;20059;-62
2022/06/15 10:09:31;;;;;;;1999.90;999.90;;;26.00;93.80;;;;;;5092061;28;20044;-62
2022/06/15 10:15:05;;;;;;;1999.90;999.90;;;26.50;90.90;;;;;;5090410;28;20043;-62
2022/06/15 10:17:35;;;;;;;1999.90;999.90;;;26.40;89.60;;;;;;5091955;28;20052;-62
2022/06/15 10:20:01;;;;;;;1999.90;999.90;;;26.30;82.90;;;;;;5073512;28;20376;-62
2022/06/15 10:22:32;;;;;;;1999.90;999.90;;;26.00;84.40;;;;;;5067821;28;20047;-62
2022/06/15 10:25:02;;;;;;;1999.90;999.90;;;25.90;82.40;;;;;;5051682;28;20041;-62
2022/06/15 10:27:35;;;;;;;1999.90;999.90;;;25.70;84.50;;;;;;5068875;28;20040;-63
2022/06/15 10:30:07;;;;;;;1999.90;999.90;;;25.40;83.40;;;;;;5072177;28;20478;-63
2022/06/15 10:32:35;;;;;;;1999.90;999.90;;;24.90;84.40;;;;;;5070917;28;20036;-62
2022/06/15 10:35:12;;;;;;;1999.90;999.90;;;24.50;84.70;;;;;;5070615;28;20045;-62
2022/06/15 10:37:43;;;;;;;1999.90;999.90;;;24.00;87.60;;;;;;5066495;28;20103;-62
2022/06/15 10:40:25;;;;;;;;;;;23.90;88.50;;;;;;5050239;28;20049;-62
2022/06/15 10:42:54;;;;;;;;;;;23.90;87.40;;;;;;5049174;28;20069;-62
2022/06/15 10:45:26;;;;;;;;;;;24.30;86.30;;;;;;5077122;28;19920;-62
2022/06/15 10:48:02;;;;;;;;;;;25.10;83.40;;;;;;5090588;28;19920;-62
2022/06/15 10:50:32;;;;;;;1999.90;999.90;;;25.60;80.80;;;;;;5092374;28;19920;-63
2022/06/15 10:53:00;;;;;;;;;;;25.40;81.90;;;;;;5094526;28;20509;-62
2022/06/15 11:04:02;;;;;;;;;;;25.40;82.20;;;;;;5093834;28;19995;-62
2022/06/15 11:06:35;;;;;;;;;;;25.90;80.70;;;;;;5094967;28;19955;-63
2022/06/15 11:09:01;;;;;;;;;;;26.40;79.70;;;;;;5094206;28;19965;-63
2022/06/15 11:11:27;;;;;;;;;;;26.50;73.80;;;;;;5093855;28;20324;-63
2022/06/15 11:13:55;;;;;;;;;;;26.60;75.30;;;;;;5094986;28;19920;-62
2022/06/15 11:19:12;;;;;;;;;;;27.10;75.30;;;;;;5093754;28;20003;-62
2022/06/15 11:21:43;;;;;;;;;;;27.50;72.60;;;;;;5094438;28;19926;-63
2022/06/15 11:24:22;;;;;;;;;;;27.60;73.20;;;;;;5093947;28;19943;-63
2022/06/15 11:27:04;;;;;;;;;;;27.80;70.20;;;;;;5093763;28;19916;-63
2022/06/15 11:29:30;;;;;;;;;;;27.90;68.00;;;;;;5093411;28;19920;-62
2022/06/15 11:31:58;;;;;;;;;;;27.80;67.50;;;;;;5094451;28;19937;-63
2022/06/15 11:34:27;;;;;;;;;;;27.60;68.20;;;;;;5093992;28;19924;-63
2022/06/15 11:37:03;;;;;;;;;;;27.60;68.40;;;;;;5084488;28;19916;-63
2022/06/15 11:39:33;;;;;;;;;;;27.80;68.10;;;;;;5053762;28;19921;-63
2022/06/15 11:41:59;;;;;;;;;;;28.00;65.90;;;;;;5062523;28;20405;-63
2022/06/15 11:44:28;;;;;;;;;;;27.90;64.80;;;;;;5054755;28;19920;-63
2022/06/15 11:47:06;;;;;;;;;;;27.80;64.40;;;;;;5062344;28;19927;-63
2022/06/15 11:49:32;;;;;;;;;;;27.80;61.90;;;;;;5071621;28;19927;-63
2022/06/15 11:51:57;;;;;;;;;;;27.50;63.40;;;;;;5072326;28;19921;-63
2022/06/15 11:54:28;;;;;;;;;;;27.50;64.20;;;;;;5073905;28;20373;-63
2022/06/15 11:57:02;;;;;;;;;;;27.20;64.50;;;;;;5091908;28;19923;-63
2022/06/15 11:59:47;;;;;;;;;;;27.10;63.70;;;;;;5093772;28;19915;-63
2022/06/15 12:02:13;;;;;;;;;;;27.00;63.90;;;;;;5092786;28;19920;-63
2022/06/15 12:04:53;;;;;;;1999.90;999.90;;;26.80;63.70;;;;;;5093205;28;19947;-63
2022/06/15 12:07:32;;;;;;;1999.90;999.90;;;27.00;64.00;;;;;;5095193;28;20112;-63
2022/06/15 12:10:22;;;;;;;1999.90;999.90;;;27.20;63.30;;;;;;5095057;28;20040;-63
2022/06/15 12:12:55;;;;;;;1999.90;999.90;;;27.20;61.80;;;;;;5074942;28;20040;-63
2022/06/15 12:15:31;;;;;;;1999.90;999.90;;;27.10;63.80;;;;;;5074242;28;20056;-63
2022/06/15 12:18:23;;;;;;;1999.90;999.90;;;27.10;62.90;;;;;;5077119;28;20131;-63
2022/06/15 12:21:19;;;;;;;1999.90;999.90;;;27.20;64.00;;;;;;5094439;28;20040;-63
2022/06/15 12:24:13;;;;;;;1999.90;999.90;;;27.20;64.50;;;;;;5054251;28;20053;-63
2022/06/15 12:26:44;;;;;;;1999.90;999.90;;;27.10;63.90;;;;;;5061546;28;20542;-63
2022/06/15 12:29:44;;;;;;;1999.90;999.90;;;27.20;64.00;;;;;;5094484;28;20095;-63
2022/06/15 12:32:31;;;;;;;1999.90;999.90;;;27.30;64.20;;;;;;5071498;28;20403;-63
2022/06/15 12:35:03;;;;;;;1999.90;999.90;;;27.20;63.00;;;;;;5073897;28;20101;-63
2022/06/15 12:37:36;;;;;;;1999.90;999.90;;;27.20;62.80;;;;;;5052174;28;20052;-63
2022/06/15 12:40:10;;;;;;;1999.90;999.90;;;27.00;63.50;;;;;;5071833;28;20574;-63
2022/06/15 12:42:37;;;;;;;1999.90;999.90;;;26.80;63.50;;;;;;5074004;28;20052;-63
2022/06/15 12:45:16;;;;;;;1999.90;999.90;;;26.70;64.00;;;;;;5073887;28;20513;-63
2022/06/15 12:47:51;;;;;;;1999.90;999.90;;;26.70;64.30;;;;;;5072402;28;20052;-63
2022/06/15 12:50:29;;;;;;;1999.90;999.90;;;26.50;64.70;;;;;;5073518;28;20510;-63